Time;durP1;ratioP1;P1;durP2;ratioP2;P2;SDS_P1;SDS_P2;PMS_P1;PMS_P2;Temp;Humidity;BMP_temperature;BMP_pressure;BME280_temperature;BME280_humidity;BME280_pressure;Samples;Min_cycle;Max_cycle;Signal;HPM_P1;HPM_P2
2021/05/29 00:00:40;;;;;;;72.70;9.73;;;;;;;;;;4831957;28;20230;-76
2021/05/29 00:03:02;;;;;;;15.00;2.20;;;;;;;;;;4797712;28;20192;-76
2021/05/29 00:05:25;;;;;;;13.43;2.10;;;;;;;;;;4834616;28;20219;-77
2021/05/29 00:07:47;;;;;;;19.47;2.93;;;;;;;;;;4833449;28;20187;-78
2021/05/29 00:10:10;;;;;;;23.80;3.43;;;11.20;1.00;;;;;;4813504;28;20199;-77
2021/05/29 00:12:33;;;;;;;15.23;2.27;;;11.20;19.30;;;;;;4813698;28;20203;-74
2021/05/29 00:14:56;;;;;;;11.63;1.77;;;;;;;;;;4794693;28;20192;-76
2021/05/29 00:17:18;;;;;;;16.37;2.50;;;;;;;;;;4806799;28;20250;-77
2021/05/29 00:19:41;;;;;;;22.17;3.20;;;;;;;;;;4814868;28;20199;-78
2021/05/29 00:22:04;;;;;;;17.00;2.57;;;11.20;99.90;;;;;;4813873;28;20203;-78
2021/05/29 00:24:27;;;;;;;19.00;2.67;;;;;;;;;;4814351;28;20270;-77
2021/05/29 00:26:49;;;;;;;22.27;3.10;;;;;;;;;;4831712;28;20199;-79
2021/05/29 00:29:12;;;;;;;9.67;1.73;;;11.10;99.90;;;;;;4795876;28;20220;-77
2021/05/29 00:31:34;;;;;;;15.50;2.33;;;;;;;;;;4802128;28;20191;-75
2021/05/29 00:33:57;;;;;;;10.73;1.77;;;;;;;;;;4818000;28;20266;-76
2021/05/29 00:36:19;;;;;;;11.57;1.73;;;;;;;;;;4836047;28;20653;-76
2021/05/29 00:38:47;;;;;;;22.33;3.10;;;;;;;;;;4817265;28;20227;-76
2021/05/29 00:41:11;;;;;;;10.03;1.63;;;;;;;;;;4818534;28;20878;-75
2021/05/29 00:43:34;;;;;;;13.70;2.10;;;;;;;;;;4801460;28;20212;-76
2021/05/29 00:45:57;;;;;;;12.00;1.97;;;10.80;1.00;;;;;;4818304;28;20318;-75
2021/05/29 00:48:20;;;;;;;10.00;1.63;;;;;;;;;;4832258;28;20184;-75
2021/05/29 00:50:58;;;;;;;17.07;2.47;;;;;;;;;;4806544;28;20425;-76
2021/05/29 00:53:25;;;;;;;8.40;1.37;;;;;;;;;;4818616;28;20213;-78
2021/05/29 00:55:48;;;;;;;15.30;2.33;;;;;;;;;;4817817;28;20226;-75
2021/05/29 00:58:11;;;;;;;11.03;1.97;;;;;;;;;;4818799;28;20257;-74
2021/05/29 01:00:34;;;;;;;89.40;11.70;;;;;;;;;;4833879;28;20574;-75
2021/05/29 01:02:57;;;;;;;11.27;1.77;;;10.70;1.00;;;;;;4818828;28;20331;-76
2021/05/29 01:05:20;;;;;;;10.37;1.80;;;10.60;99.90;;;;;;4802822;28;20220;-76
2021/05/29 01:07:43;;;;;;;18.37;2.80;;;;;;;;;;4811978;28;20208;-76
2021/05/29 01:10:07;;;;;;;10.50;1.70;;;10.70;1.00;;;;;;4818869;28;20195;-77
2021/05/29 01:12:29;;;;;;;9.07;1.60;;;;;;;;;;4818802;28;20269;-75
2021/05/29 01:14:55;;;;;;;9.70;1.60;;;;;;;;;;4838197;28;20191;-78
2021/05/29 01:17:17;;;;;;;6.80;1.23;;;;;;;;;;4822155;28;20265;-77
2021/05/29 01:19:40;;;;;;;14.77;2.27;;;10.70;99.90;;;;;;4789510;28;20200;-75
2021/05/29 01:22:07;;;;;;;8.90;1.53;;;10.70;99.90;;;;;;4804370;28;20572;-76
2021/05/29 01:24:29;;;;;;;8.27;1.40;;;;;;;;;;4805740;28;20360;-76
2021/05/29 01:26:54;;;;;;;15.97;2.50;;;10.70;99.90;;;;;;4839637;28;20690;-75
2021/05/29 01:29:17;;;;;;;7.60;1.43;;;10.70;99.90;;;;;;4839962;28;20265;-75
2021/05/29 01:31:39;;;;;;;16.07;2.37;;;;;;;;;;4821514;28;20222;-76
2021/05/29 01:34:01;;;;;;;9.93;1.90;;;;;;;;;;4837967;28;20261;-76
2021/05/29 01:36:24;;;;;;;9.53;1.77;;;10.70;1.00;;;;;;4837907;28;20203;-75
2021/05/29 01:38:48;;;;;;;16.17;2.57;;;10.80;1.00;;;;;;4838084;28;20191;-78
2021/05/29 01:41:13;;;;;;;9.37;1.70;;;10.80;1.00;;;;;;4805107;28;20196;-76
2021/05/29 01:43:35;;;;;;;7.20;1.33;;;;;;;;;;4822408;28;20253;-77
2021/05/29 01:45:58;;;;;;;12.07;1.97;;;;;;;;;;4821303;28;20261;-77
2021/05/29 01:48:21;;;;;;;8.77;1.60;;;;;;;;;;4839400;28;20241;-77
2021/05/29 01:50:46;;;;;;;13.80;2.30;;;;;;;;;;4805509;28;20291;-76
2021/05/29 01:53:09;;;;;;;8.17;1.40;;;;;;;;;;4837891;28;20273;-77
2021/05/29 01:55:33;;;;;;;7.70;1.50;;;10.80;1.00;;;;;;4837284;28;20242;-76
2021/05/29 01:57:57;;;;;;;7.27;1.40;;;10.80;1.00;;;;;;4839227;28;20233;-76
2021/05/29 02:00:21;;;;;;;6.90;1.30;;;10.80;1.00;;;;;;4838853;28;20261;-77
2021/05/29 02:02:43;;;;;;;16.60;2.60;;;;;;;;;;4820360;28;20191;-77
2021/05/29 02:05:12;;;;;;;10.53;1.83;;;10.80;1.00;;;;;;4838976;28;20218;-76
2021/05/29 02:07:34;;;;;;;5.43;1.13;;;;;;;;;;4838994;28;20191;-84
2021/05/29 02:09:56;;;;;;;7.57;1.47;;;;;;;;;;4839021;28;20182;-76
2021/05/29 02:12:19;;;;;;;8.83;1.70;;;10.80;1.00;;;;;;4821712;28;20193;-76
2021/05/29 02:14:42;;;;;;;16.57;2.60;;;;;;;;;;4820609;28;20211;-77
2021/05/29 02:17:06;;;;;;;7.90;1.40;;;;;;;;;;4838648;28;20178;-76
2021/05/29 02:19:28;;;;;;;7.60;1.50;;;;;;;;;;4838851;28;20187;-76
2021/05/29 02:21:50;;;;;;;14.40;2.37;;;;;;;;;;4820935;28;20192;-76
2021/05/29 02:24:14;;;;;;;6.47;1.43;;;;;;;;;;4820944;28;20210;-76
2021/05/29 02:26:37;;;;;;;10.30;1.90;;;;;;;;;;4820756;28;20575;-76
2021/05/29 02:29:02;;;;;;;6.80;1.30;;;10.70;1.00;;;;;;4837449;28;20245;-78
2021/05/29 02:31:25;;;;;;;9.03;1.57;;;;;;;;;;4838662;28;20187;-77
2021/05/29 02:33:48;;;;;;;12.23;2.20;;;10.70;1.00;;;;;;4836870;28;20203;-79
2021/05/29 02:36:11;;;;;;;8.43;1.50;;;10.60;1.00;;;;;;4838555;28;20720;-78
2021/05/29 02:38:34;;;;;;;10.07;1.87;;;10.70;1.00;;;;;;4838290;28;20210;-83
2021/05/29 02:40:56;;;;;;;5.70;1.33;;;;;;;;;;4817882;28;20207;-77
2021/05/29 02:43:19;;;;;;;8.23;1.53;;;;;;;;;;4802353;28;20204;-77
2021/05/29 02:45:42;;;;;;;13.23;2.17;;;10.70;1.00;;;;;;4801855;28;20220;-77
2021/05/29 02:48:04;;;;;;;6.93;1.30;;;;;;;;;;4834853;28;20815;-78
2021/05/29 02:50:27;;;;;;;8.17;1.60;;;10.40;1.00;;;;;;4802193;28;20192;-78
2021/05/29 02:52:49;;;;;;;16.13;2.57;;;;;;;;;;4801854;28;20204;-76
2021/05/29 02:55:15;;;;;;;8.70;1.70;;;10.70;1.00;;;;;;4801538;28;20620;-76
2021/05/29 02:57:38;;;;;;;6.90;1.53;;;;;;;;;;4834205;28;20198;-75
2021/05/29 03:00:00;;;;;;;6.57;1.33;;;;;;;;;;4785543;28;20233;-75
2021/05/29 03:02:24;;;;;;;9.17;1.67;;;10.70;1.00;;;;;;4799964;28;20192;-76
2021/05/29 03:04:46;;;;;;;14.17;2.37;;;;;;;;;;4801167;28;20236;-75
2021/05/29 03:07:11;;;;;;;8.93;1.60;;;;;;;;;;4819213;28;20187;-75
2021/05/29 03:09:33;;;;;;;6.80;1.30;;;;;;;;;;4801609;28;20656;-75
2021/05/29 03:11:57;;;;;;;6.20;1.40;;;10.60;1.00;;;;;;4801463;28;20195;-74
2021/05/29 03:14:19;;;;;;;6.57;1.30;;;;;;;;;;4818898;28;20188;-74
2021/05/29 03:16:41;;;;;;;14.50;2.40;;;;;;;;;;4801569;28;20231;-75
2021/05/29 03:19:04;;;;;;;8.73;1.57;;;10.60;1.00;;;;;;4801482;28;20605;-74
2021/05/29 03:21:27;;;;;;;8.53;1.53;;;;;;;;;;4818997;28;20183;-76
2021/05/29 03:23:49;;;;;;;13.13;2.20;;;;;;;;;;4800190;28;20643;-74
2021/05/29 03:26:13;;;;;;;8.53;1.63;;;;;;;;;;4818792;28;20211;-74
2021/05/29 03:28:35;;;;;;;9.37;1.70;;;;;;;;;;4817287;28;20207;-74
2021/05/29 03:30:57;;;;;;;6.37;1.40;;;10.60;1.00;;;;;;4785207;28;20271;-74
2021/05/29 03:33:20;;;;;;;9.10;1.60;;;;;;;;;;4818829;28;20187;-76
2021/05/29 03:35:43;;;;;;;14.53;2.43;;;10.50;1.00;;;;;;4801182;28;20231;-74
2021/05/29 03:38:05;;;;;;;8.67;1.53;;;;;;;;;;4818246;28;20534;-76
2021/05/29 03:40:27;;;;;;;9.17;1.63;;;;;;;;;;4818899;28;20645;-76
2021/05/29 03:42:49;;;;;;;16.63;2.63;;;;;;;;;;4818291;28;20641;-75
2021/05/29 03:45:14;;;;;;;8.90;1.57;;;10.50;1.00;;;;;;4818564;28;20273;-75
2021/05/29 03:47:37;;;;;;;6.20;1.23;;;;;;;;;;4801036;28;20210;-74
2021/05/29 03:49:59;;;;;;;7.30;1.50;;;;;;;;;;4817222;28;20267;-75
2021/05/29 03:52:22;;;;;;;8.23;1.57;;;10.40;1.00;;;;;;4818591;28;20187;-74
2021/05/29 03:54:44;;;;;;;18.10;2.80;;;;;;;;;;4800452;28;20227;-74
2021/05/29 03:57:07;;;;;;;8.73;1.63;;;10.40;1.00;;;;;;4818698;28;20222;-75
2021/05/29 03:59:29;;;;;;;8.07;1.50;;;;;;;;;;4817061;28;20249;-75
2021/05/29 04:01:52;;;;;;;13.03;2.27;;;;;;;;;;4799297;28;20195;-73
2021/05/29 04:04:14;;;;;;;4.87;1.00;;;;;;;;;;4784875;28;20697;-74
2021/05/29 04:06:37;;;;;;;5.97;1.20;;;;;;;;;;4818265;28;20253;-75
2021/05/29 04:08:59;;;;;;;6.97;1.37;;;10.50;1.00;;;;;;4800980;28;20211;-75
2021/05/29 04:11:22;;;;;;;6.97;1.27;;;;;;;;;;4818843;28;20188;-77
2021/05/29 04:13:44;;;;;;;8.53;1.57;;;;;;;;;;4818278;28;20662;-74
2021/05/29 04:16:06;;;;;;;7.93;1.50;;;;;;;;;;4818462;28;20257;-74
2021/05/29 04:18:29;;;;;;;18.53;2.80;;;;;;;;;;4800979;28;20203;-75
2021/05/29 04:20:51;;;;;;;15.00;2.27;;;;;;;;;;4800717;28;20200;-75
2021/05/29 04:23:14;;;;;;;12.70;2.03;;;;;;;;;;4800835;28;20230;-74
2021/05/29 04:25:37;;;;;;;4.43;0.97;;;11.00;1.00;;;;;;4818284;28;20842;-77
2021/05/29 04:28:00;;;;;;;6.53;1.20;;;;;;;;;;4818435;28;20270;-79
2021/05/29 04:30:24;;;;;;;6.60;1.23;;;11.20;1.00;;;;;;4818428;28;20561;-76
2021/05/29 04:32:48;;;;;;;15.17;2.23;;;10.90;1.00;;;;;;4800726;28;20250;-75
2021/05/29 04:35:11;;;;;;;5.70;1.00;;;11.40;1.00;;;;;;4816413;28;20188;-74
2021/05/29 04:37:33;;;;;;;13.43;2.13;;;;;;;;;;4818959;28;20273;-74
2021/05/29 04:39:55;;;;;;;6.80;1.20;;;;;;;;;;4819525;28;20645;-75
2021/05/29 04:42:18;;;;;;;5.70;1.10;;;11.40;99.90;;;;;;4819320;28;20238;-77
2021/05/29 04:44:40;;;;;;;14.67;2.17;;;;;;;;;;4836975;28;20191;-74
2021/05/29 04:47:05;;;;;;;8.37;1.50;;;;;;;;;;4837273;28;20179;-73
2021/05/29 04:49:29;;;;;;;10.17;1.77;;;;;;;;;;4839791;28;20190;-74
2021/05/29 04:51:54;;;;;;;12.63;2.07;;;;;;;;;;4840510;28;20233;-75
2021/05/29 04:54:17;;;;;;;5.93;1.20;;;;;;;;;;4823111;28;20206;-77
2021/05/29 04:56:40;;;;;;;11.27;1.90;;;;;;;;;;4823067;28;20182;-74
2021/05/29 04:59:03;;;;;;;6.67;1.17;;;10.90;77.60;;;;;;4840746;28;20247;-76
2021/05/29 05:01:29;;;;;;;7.47;1.30;;;;;;;;;;4820868;28;20697;-75
2021/05/29 05:03:51;;;;;;;14.77;2.27;;;;;;;;;;4840301;28;20221;-75
2021/05/29 05:06:14;;;;;;;9.13;1.43;;;;;;;;;;4855583;28;20679;-75
2021/05/29 05:08:36;;;;;;;5.77;1.07;;;;;;;;;;4840477;28;20230;-75
2021/05/29 05:10:59;;;;;;;5.00;1.00;;;;;;;;;;4840299;28;20191;-74
2021/05/29 05:13:21;;;;;;;5.50;0.90;;;;;;;;;;4822813;28;20223;-74
2021/05/29 05:15:44;;;;;;;16.23;2.40;;;11.60;99.90;;;;;;4840230;28;20219;-74
2021/05/29 05:18:08;;;;;;;9.13;1.53;;;;;;;;;;4840045;28;20530;-75
2021/05/29 05:20:30;;;;;;;6.93;1.20;;;;;;;;;;4822318;28;20255;-74
2021/05/29 05:22:52;;;;;;;15.30;2.37;;;;;;;;;;4840056;28;20191;-73
2021/05/29 05:25:16;;;;;;;7.93;1.37;;;11.90;1.00;;;;;;4806098;28;20218;-74
2021/05/29 05:27:39;;;;;;;12.77;1.90;;;;;;;;;;4837912;28;20309;-74
2021/05/29 05:30:04;;;;;;;6.93;1.20;;;12.20;1.00;;;;;;4822140;28;20277;-73
2021/05/29 05:32:27;;;;;;;9.57;1.50;;;12.30;1.00;;;;;;4840009;28;20735;-74
2021/05/29 05:34:50;;;;;;;16.20;2.30;;;;;;;;;;4839600;28;20237;-74
2021/05/29 05:37:12;;;;;;;6.97;1.13;;;;;;;;;;4822097;28;20241;-74
2021/05/29 05:39:34;;;;;;;9.43;1.50;;;;;;;;;;4838598;28;20239;-74
2021/05/29 05:41:56;;;;;;;7.93;1.17;;;;;;;;;;4827604;28;20279;-74
2021/05/29 05:44:19;;;;;;;7.80;1.30;;;;;;;;;;4816508;28;20216;-74
2021/05/29 05:46:41;;;;;;;12.87;1.93;;;;;;;;;;4821193;28;20673;-74
2021/05/29 05:49:06;;;;;;;9.23;1.40;;;12.70;99.90;;;;;;4836400;28;20669;-74
2021/05/29 05:51:30;;;;;;;10.27;1.50;;;;;;;;;;4820855;28;20250;-73
2021/05/29 05:53:52;;;;;;;14.53;2.13;;;;;;;;;;4820665;28;20246;-75
2021/05/29 05:56:25;;;;;;;9.20;1.40;;;;;;;;;;4818452;28;20231;-74
2021/05/29 05:58:47;;;;;;;18.47;2.60;;;;;;;;;;4802941;28;20188;-76
2021/05/29 06:01:09;;;;;;;7.40;1.17;;;;;;;;;;4817964;28;20187;-74
2021/05/29 06:03:32;;;;;;;9.73;1.50;;;;;;;;;;4819348;28;20187;-77
2021/05/29 06:05:55;;;;;;;16.40;2.33;;;13.60;1.00;;;;;;4820202;28;20624;-75
2021/05/29 06:08:18;;;;;;;7.10;1.23;;;;;;;;;;4820528;28;20211;-78
2021/05/29 06:10:41;;;;;;;13.90;2.00;;;;;;;;;;4838986;28;20237;-75
2021/05/29 06:13:03;;;;;;;8.43;1.30;;;;;;;;;;4839146;28;20819;-76
2021/05/29 06:20:51;;;;;;;15.87;2.23;;;;;;;;;;4752882;28;20852;-76
2021/05/29 06:23:16;;;;;;;10.03;1.50;;;14.40;1.00;;;;;;4821455;28;20564;-75
2021/05/29 06:25:38;;;;;;;7.90;1.10;;;;;;;;;;4838794;28;20625;-77
2021/05/29 06:28:01;;;;;;;10.50;1.53;;;;;;;;;;4804997;28;20216;-73
2021/05/29 06:30:23;;;;;;;10.77;1.60;;;;;;;;;;4837968;28;20237;-75
2021/05/29 06:32:46;;;;;;;11.67;1.70;;;;;;;;;;4838694;28;20187;-74
2021/05/29 06:35:09;;;;;;;10.17;1.50;;;14.90;1.00;;;;;;4821208;28;20184;-74
2021/05/29 06:37:32;;;;;;;8.17;1.23;;;;;;;;;;4837831;28;20543;-80
2021/05/29 06:39:55;;;;;;;16.53;2.30;;;15.10;1.00;;;;;;4838498;28;20669;-76
2021/05/29 06:42:17;;;;;;;8.80;1.27;;;;;;;;;;4838627;28;20584;-81
2021/05/29 06:44:40;;;;;;;14.37;1.97;;;;;;;;;;4803524;28;20553;-76
2021/05/29 06:47:03;;;;;;;8.83;1.27;;;;;;;;;;4804316;28;20702;-82
2021/05/29 06:49:25;;;;;;;8.03;1.20;;;;;;;;;;4820865;28;20782;-75
2021/05/29 06:51:54;;;;;;;17.27;2.30;;;;;;;;;;4820471;28;20223;-84
2021/05/29 06:54:23;;;;;;;8.37;1.23;;;;;;;;;;4838489;28;20186;-76
2021/05/29 06:59:27;;;;;;;11.23;1.70;;;;;;;;;;4838336;28;20647;-77
2021/05/29 07:01:49;;;;;;;14.83;2.00;;;;;;;;;;4818335;28;20583;-77
2021/05/29 07:04:13;;;;;;;9.93;1.40;;;;;;;;;;4802982;28;20199;-77
2021/05/29 07:06:35;;;;;;;15.40;2.20;;;;;;;;;;4803435;28;20216;-84
2021/05/29 07:08:58;;;;;;;6.93;1.03;;;;;;;;;;4837657;28;20264;-77
2021/05/29 07:11:20;;;;;;;10.67;1.53;;;;;;;;;;4835510;28;20191;-75
2021/05/29 07:13:43;;;;;;;17.53;2.30;;;16.00;1.00;;;;;;4837039;28;20187;-80
2021/05/29 07:16:06;;;;;;;12.97;1.87;;;16.60;99.90;;;;;;4819982;28;20265;-75
2021/05/29 07:18:31;;;;;;;11.53;1.70;;;;;;;;;;4837688;28;20183;-75
2021/05/29 07:20:53;;;;;;;14.00;1.90;;;;;;;;;;4834551;28;20661;-79
2021/05/29 07:23:15;;;;;;;12.37;1.77;;;;;;;;;;4803608;28;20633;-77
2021/05/29 07:25:40;;;;;;;8.40;1.30;;;;;;;;;;4834399;28;20266;-82
2021/05/29 07:28:02;;;;;;;8.73;1.30;;;;;;;;;;4815686;28;20270;-89
2021/05/29 07:30:26;;;;;;;14.07;1.93;;;16.70;1.00;;;;;;4836604;28;20237;-74
2021/05/29 07:32:48;;;;;;;11.33;1.60;;;;;;;;;;4786934;28;20197;-76
2021/05/29 07:35:11;;;;;;;9.43;1.37;;;16.30;99.90;;;;;;4818791;28;20257;-76
2021/05/29 07:37:33;;;;;;;7.70;1.07;;;;;;;;;;4803299;28;20255;-77
2021/05/29 07:39:56;;;;;;;7.70;1.10;;;;;;;;;;4813546;28;20626;-76
2021/05/29 07:42:19;;;;;;;12.77;1.83;;;;;;;;;;4802983;28;20239;-80
2021/05/29 07:44:41;;;;;;;17.07;2.23;;;;;;;;;;4803656;28;20242;-76
2021/05/29 07:47:07;;;;;;;10.13;1.40;;;16.90;99.90;;;;;;4820229;28;20278;-77
2021/05/29 07:49:29;;;;;;;10.00;1.37;;;;;;;;;;4819534;28;20561;-77
2021/05/29 07:51:54;;;;;;;21.43;2.80;;;;;;;;;;4803783;28;20202;-75
2021/05/29 07:54:16;;;;;;;7.40;1.10;;;;;;;;;;4837874;28;20187;-76
2021/05/29 07:56:38;;;;;;;11.93;1.57;;;;;;;;;;4837474;28;20285;-77
2021/05/29 07:59:06;;;;;;;9.97;1.50;;;;;;;;;;4819893;28;20246;-75
2021/05/29 08:01:28;;;;;;;18.00;2.40;;;;;;;;;;4835870;28;20832;-76
2021/05/29 08:03:51;;;;;;;12.77;1.80;;;17.90;99.90;;;;;;4837740;28;20191;-74
2021/05/29 08:06:14;;;;;;;16.90;2.27;;;;;;;;;;4831214;28;20229;-77
2021/05/29 08:08:37;;;;;;;11.17;1.43;;;;;;;;;;4831343;28;20250;-76
2021/05/29 08:11:01;;;;;;;8.63;1.23;;;;;;;;;;4803451;28;20203;-75
2021/05/29 08:13:23;;;;;;;10.30;1.43;;;;;;;;;;4835755;28;20182;-78
2021/05/29 08:15:48;;;;;;;19.70;2.60;;;17.50;99.90;;;;;;4837588;28;20817;-75
2021/05/29 08:18:12;;;;;;;14.80;2.00;;;;;;;;;;4835026;28;20194;-75
2021/05/29 08:20:36;;;;;;;13.70;1.90;;;17.00;99.90;;;;;;4794493;28;20196;-75
2021/05/29 08:22:58;;;;;;;11.97;1.67;;;;;;;;;;4836678;28;20187;-75
2021/05/29 08:25:20;;;;;;;13.47;1.90;;;;;;;;;;4817052;28;20686;-77
2021/05/29 08:27:43;;;;;;;20.33;2.73;;;;;;;;;;4834191;28;20249;-75
2021/05/29 08:30:09;;;;;;;12.03;1.60;;;17.20;99.90;;;;;;4837424;28;20213;-76
2021/05/29 08:32:31;;;;;;;13.93;1.93;;;;;;;;;;4822046;28;20230;-76
2021/05/29 08:34:54;;;;;;;16.87;2.27;;;;;;;;;;4822931;28;20605;-76
2021/05/29 08:37:17;;;;;;;11.07;1.53;;;17.30;99.90;;;;;;4823336;28;20195;-78
2021/05/29 08:39:39;;;;;;;15.27;2.03;;;;;;;;;;4822701;28;20199;-77
2021/05/29 08:42:04;;;;;;;9.13;1.37;;;17.10;99.90;;;;;;4812718;28;20196;-80
2021/05/29 08:44:27;;;;;;;10.93;1.57;;;;;;;;;;4835847;28;20195;-77
2021/05/29 08:46:49;;;;;;;8.60;1.27;;;17.00;99.90;;;;;;4823076;28;20693;-75
2021/05/29 08:49:12;;;;;;;12.10;1.63;;;;;;;;;;4839386;28;20241;-76
2021/05/29 08:51:36;;;;;;;8.97;1.23;;;;;;;;;;4840417;28;20193;-79
2021/05/29 08:54:01;;;;;;;10.07;1.40;;;18.00;99.90;;;;;;4839085;28;20265;-76
2021/05/29 08:56:24;;;;;;;10.70;1.43;;;18.60;99.90;;;;;;4840497;28;20301;-81
2021/05/29 08:58:47;;;;;;;22.27;2.77;;;;;;;;;;4823175;28;20254;-78
2021/05/29 09:01:09;;;;;;;11.53;1.53;;;;;;;;;;4819559;28;20557;-73
2021/05/29 09:03:46;;;;;;;13.60;1.87;;;18.30;99.90;;;;;;4839740;28;20237;-72
2021/05/29 09:06:08;;;;;;;18.17;2.47;;;;;;;;;;4834879;28;20692;-72
2021/05/29 09:08:31;;;;;;;15.97;2.07;;;;;;;;;;4805166;28;20260;-72
2021/05/29 09:10:56;;;;;;;19.07;2.57;;;17.00;99.90;;;;;;4821424;28;20268;-74
2021/05/29 09:13:20;;;;;;;12.83;1.70;;;16.90;99.90;;;;;;4822840;28;20182;-81
2021/05/29 09:15:48;;;;;;;27.37;3.50;;;16.90;99.90;;;;;;4839867;28;20222;-74
2021/05/29 09:18:27;;;;;;;12.30;1.67;;;17.00;99.90;;;;;;4838767;28;20194;-79
2021/05/29 09:20:49;;;;;;;15.47;2.07;;;;;;;;;;4830862;28;20249;-75
2021/05/29 09:23:12;;;;;;;13.63;1.83;;;;;;;;;;4831308;28;20182;-76
2021/05/29 09:25:34;;;;;;;12.80;1.70;;;18.10;99.90;;;;;;4839561;28;20595;-75
2021/05/29 09:27:59;;;;;;;11.27;1.50;;;19.00;99.90;;;;;;4839352;28;20231;-74
2021/05/29 09:30:40;;;;;;;17.67;2.30;;;19.90;99.90;;;;;;4797689;28;20202;-76
2021/05/29 09:33:15;;;;;;;12.60;5.53;;;21.50;99.90;;;;;;4829221;28;20194;-76
2021/05/29 09:35:38;;;;;;;19.67;6.23;;;;;;;;;;4819971;28;20675;-84
2021/05/29 09:38:04;;;;;;;19.23;4.90;;;24.30;99.90;;;;;;4838333;28;20232;-83
2021/05/29 09:40:26;;;;;;;17.43;10.67;;;;;;;;;;4820772;28;20201;-76
2021/05/29 09:42:48;;;;;;;34.57;9.43;;;;;;;;;;4804633;28;20201;-75
2021/05/29 09:45:23;;;;;;;23.80;18.37;;;26.00;99.90;;;;;;4821668;28;20246;-88
2021/05/29 09:48:09;;;;;;;112.17;103.13;;;27.40;99.90;;;;;;4839243;28;20301;-88
2021/05/29 09:50:32;;;;;;;252.07;227.70;;;;;;;;;;4821892;28;20241;-86
2021/05/29 09:52:54;;;;;;;302.53;271.90;;;;;;;;;;4820600;28;20294;-84
2021/05/29 09:55:16;;;;;;;320.53;284.50;;;;;;;;;;4822319;28;20280;-86
2021/05/29 09:57:51;;;;;;;283.83;259.60;;;31.40;99.90;;;;;;4821686;28;20206;-84
2021/05/29 10:00:15;;;;;;;283.43;258.83;;;30.50;99.90;;;;;;4821367;28;20215;-85
2021/05/29 10:02:38;;;;;;;247.10;228.57;;;29.10;99.90;;;;;;4837540;28;20198;-88
2021/05/29 10:05:00;;;;;;;238.97;220.10;;;;;;;;;;4820750;28;20525;-80
2021/05/29 10:07:24;;;;;;;272.93;248.30;;;25.80;99.90;;;;;;4820525;28;20234;-85
2021/05/29 10:09:46;;;;;;;198.77;182.20;;;;;;;;;;4803856;28;20199;-76
2021/05/29 10:12:08;;;;;;;128.90;119.80;;;;;;;;;;4820480;28;20254;-76
2021/05/29 10:14:31;;;;;;;74.90;69.13;;;;;;;;;;4819444;28;20214;-77
2021/05/29 10:16:54;;;;;;;113.27;103.13;;;;;;;;;;4827478;28;20330;-75
2021/05/29 10:19:21;;;;;;;125.73;115.83;;;21.70;99.90;;;;;;4817579;28;20214;-76
2021/05/29 10:21:44;;;;;;;99.37;90.23;;;21.90;99.90;;;;;;4834864;28;20195;-77
2021/05/29 10:24:10;;;;;;;74.83;68.10;;;22.20;99.90;;;;;;4815592;28;20554;-76
2021/05/29 10:26:34;;;;;;;80.40;73.50;;;22.30;99.90;;;;;;4828887;28;20600;-79
2021/05/29 10:28:57;;;;;;;85.33;78.97;;;;;;;;;;4836814;28;20674;-77
2021/05/29 10:31:19;;;;;;;79.50;73.13;;;;;;;;;;4818968;28;20624;-78
2021/05/29 10:33:44;;;;;;;84.27;76.60;;;21.20;99.90;;;;;;4811197;28;20217;-76
2021/05/29 10:36:09;;;;;;;112.97;102.90;;;20.50;99.90;;;;;;4816219;28;20213;-75
2021/05/29 10:38:43;;;;;;;92.90;84.07;;;20.00;99.90;;;;;;4826703;28;20193;-76
2021/05/29 10:41:05;;;;;;;90.27;82.33;;;;;;;;;;4800248;28;20209;-77
2021/05/29 10:43:31;;;;;;;92.77;85.40;;;19.30;99.90;;;;;;4818821;28;20227;-76
2021/05/29 10:46:11;;;;;;;65.20;57.73;;;19.10;99.90;;;;;;4833713;28;20191;-84
2021/05/29 10:48:48;;;;;;;51.90;47.20;;;19.00;99.90;;;;;;4833637;28;20186;-76
2021/05/29 10:51:12;;;;;;;43.67;39.27;;;18.80;99.90;;;;;;4817704;28;20243;-75
2021/05/29 10:53:39;;;;;;;49.37;34.73;;;19.00;99.90;;;;;;4817982;28;20583;-77
2021/05/29 10:56:32;;;;;;;50.43;30.73;;;18.90;99.90;;;;;;4796980;28;20273;-79
2021/05/29 10:59:18;;;;;;;59.40;37.83;;;18.70;99.90;;;;;;4799309;28;20723;-85
2021/05/29 11:02:01;;;;;;;92.07;71.17;;;18.30;99.90;;;;;;4791842;28;20214;-77
2021/05/29 11:04:26;;;;;;;101.60;91.67;;;;;;;;;;4799920;28;20771;-81
2021/05/29 11:06:51;;;;;;;84.90;76.40;;;17.00;99.90;;;;;;4827599;28;20823;-77
2021/05/29 11:09:14;;;;;;;57.57;52.47;;;;;;;;;;4821876;28;20249;-75
2021/05/29 11:11:56;;;;;;;43.00;38.33;;;15.90;99.90;;;;;;4801548;28;20767;-75
2021/05/29 11:14:19;;;;;;;36.10;29.47;;;;;;;;;;4828495;28;20653;-76
2021/05/29 11:17:06;;;;;;;34.63;10.17;;;15.10;99.90;;;;;;4811367;28;20215;-76
2021/05/29 11:19:30;;;;;;;23.73;5.67;;;15.10;99.90;;;;;;4831850;28;20723;-76
2021/05/29 11:22:00;;;;;;;23.57;4.73;;;15.10;99.90;;;;;;4818226;28;20215;-75
2021/05/29 11:24:23;;;;;;;19.07;3.17;;;;;;;;;;4818527;28;20657;-75
2021/05/29 11:26:45;;;;;;;31.07;4.37;;;;;;;;;;4837556;28;20257;-75
2021/05/29 11:29:07;;;;;;;16.00;2.53;;;;;;;;;;4819550;28;20203;-81
2021/05/29 11:31:30;;;;;;;13.97;2.00;;;;;;;;;;4819974;28;20203;-77
2021/05/29 11:33:55;;;;;;;29.20;4.43;;;17.30;99.90;;;;;;4819191;28;20208;-75
2021/05/29 11:36:29;;;;;;;15.17;5.23;;;19.00;99.90;;;;;;4837336;28;20653;-80
2021/05/29 11:38:52;;;;;;;35.60;16.17;;;21.10;99.90;;;;;;4819204;28;20779;-77
2021/05/29 11:41:19;;;;;;;62.97;56.90;;;23.50;99.90;;;;;;4819699;28;20255;-75
2021/05/29 11:43:43;;;;;;;161.50;146.57;;;25.00;99.90;;;;;;4819632;28;20733;-79
2021/05/29 11:46:07;;;;;;;124.10;115.10;;;25.20;99.90;;;;;;4837980;28;20191;-86
2021/05/29 11:48:34;;;;;;;109.87;102.00;;;24.90;99.90;;;;;;4804138;28;20240;-77
2021/05/29 11:51:09;;;;;;;135.27;125.90;;;;;;;;;;4820107;28;20206;-79
2021/05/29 11:53:31;;;;;;;136.47;127.57;;;;;;;;;;4819466;28;20198;-78
2021/05/29 11:55:55;;;;;;;149.27;137.93;;;27.70;99.90;;;;;;4818700;28;20277;-77
2021/05/29 11:58:18;;;;;;;197.63;183.07;;;;;;;;;;4819200;28;20767;-80
2021/05/29 12:00:55;;;;;;;262.20;230.97;;;30.20;99.90;;;;;;4817140;28;20201;-76
2021/05/29 12:03:18;;;;;;;247.47;228.53;;;;;;;;;;4802998;28;20246;-82
2021/05/29 12:05:40;;;;;;;217.43;202.80;;;;;;;;;;4837295;28;20641;-77
2021/05/29 12:08:03;;;;;;;204.95;192.25;;;33.80;99.90;;;;;;4803407;28;20270;-80
2021/05/29 12:10:26;;;;;;;216.27;203.65;;;;;;;;;;4837478;28;20187;-78
2021/05/29 12:12:53;;;;;;;251.82;234.77;;;36.20;99.90;;;;;;4819198;28;20207;-79
2021/05/29 12:15:15;;;;;;;166.23;156.82;;;;;;;;;;4837492;28;20190;-78
2021/05/29 12:17:44;;;;;;;136.57;128.68;;;;;;;;;;4819600;28;20195;-76
2021/05/29 12:20:07;;;;;;;70.28;65.28;;;33.00;99.90;;;;;;4819784;28;20211;-82
2021/05/29 12:22:30;;;;;;;33.38;29.92;;;;;;;;;;4819594;28;20195;-80
2021/05/29 12:24:54;;;;;;;35.60;28.58;;;29.50;99.90;;;;;;4819736;28;20191;-75
2021/05/29 12:27:18;;;;;;;13.15;11.23;;;27.00;99.90;;;;;;4818895;28;20305;-74
2021/05/29 12:29:41;;;;;;;17.75;3.08;;;24.90;99.90;;;;;;4818832;28;20203;-76
2021/05/29 12:32:05;;;;;;;13.37;1.90;;;22.90;99.90;;;;;;4804756;28;20196;-75
2021/05/29 12:34:31;;;;;;;12.23;1.67;;;21.00;99.90;;;;;;4800369;28;20204;-77
2021/05/29 12:37:02;;;;;;;19.17;2.47;;;19.80;99.90;;;;;;4833251;28;20194;-78
2021/05/29 12:39:25;;;;;;;12.83;1.70;;;;;;;;;;4785591;28;20229;-77
2021/05/29 12:41:49;;;;;;;20.10;2.43;;;;;;;;;;4784832;28;20200;-75
2021/05/29 12:44:11;;;;;;;14.80;1.93;;;;;;;;;;4818123;28;20194;-76
2021/05/29 12:46:34;;;;;;;13.33;1.73;;;17.40;99.90;;;;;;4783947;28;20202;-76
2021/05/29 12:49:07;;;;;;;11.40;1.50;;;18.10;99.90;;;;;;4818130;28;20658;-76
2021/05/29 12:51:38;;;;;;;7.73;1.10;;;20.00;99.90;;;;;;4800483;28;20211;-77
2021/05/29 12:54:00;;;;;;;11.60;1.57;;;;;;;;;;4800750;28;20246;-77
2021/05/29 12:56:24;;;;;;;13.27;1.80;;;;;;;;;;4784461;28;20239;-76
2021/05/29 12:58:58;;;;;;;24.70;3.03;;;24.40;99.90;;;;;;4784937;28;20723;-77
2021/05/29 13:01:31;;;;;;;15.63;2.07;;;;;;;;;;4782234;28;20753;-76
2021/05/29 13:09:29;;;;;;;11.57;1.63;;;31.70;99.90;;;;;;4819081;28;20190;-77
2021/05/29 13:11:51;;;;;;;22.33;3.03;;;32.40;1.00;;;;;;4803596;28;20200;-77
2021/05/29 13:14:16;;;;;;;10.30;1.50;;;31.40;99.90;;;;;;4821351;28;20254;-76
2021/05/29 13:16:57;;;;;;;13.20;1.75;;;30.10;99.90;;;;;;4820957;28;20241;-78
2021/05/29 13:19:23;;;;;;;11.60;1.63;;;31.40;99.90;;;;;;4821238;28;20183;-77
2021/05/29 13:21:49;;;;;;;30.77;3.88;;;31.50;99.90;;;;;;4817946;28;20416;-75
2021/05/29 13:24:12;;;;;;;8.77;1.30;;;;;;;;;;4836275;28;20186;-77
2021/05/29 13:26:34;;;;;;;10.85;1.45;;;28.80;1.00;;;;;;4821054;28;20187;-77
2021/05/29 13:28:57;;;;;;;7.75;1.00;;;;;;;;;;4803050;28;20243;-75
2021/05/29 13:31:19;;;;;;;13.50;1.90;;;;;;;;;;4820924;28;20191;-77
2021/05/29 13:33:41;;;;;;;23.00;2.80;;;;;;;;;;4802997;28;20203;-76
2021/05/29 13:36:05;;;;;;;11.20;1.53;;;21.50;99.90;;;;;;4820805;28;20191;-75
2021/05/29 13:38:27;;;;;;;11.03;1.53;;;;;;;;;;4839912;28;20182;-76
2021/05/29 13:40:50;;;;;;;17.67;2.30;;;;;;;;;;4839937;28;20192;-77